sensor_id;sensor_type;location;lat;lon;timestamp;P1;durP1;ratioP1;P2;durP2;ratioP2
5955;SDS011;3004;48.080;11.600;2023-04-08T00:00:25;66.97;;;2.90;;
5955;SDS011;3004;48.080;11.600;2023-04-08T00:02:53;67.00;;;3.00;;
5955;SDS011;3004;48.080;11.600;2023-04-08T00:05:20;67.37;;;3.60;;
5955;SDS011;3004;48.080;11.600;2023-04-08T00:07:50;67.33;;;3.17;;
5955;SDS011;3004;48.080;11.600;2023-04-08T00:10:17;67.07;;;2.90;;
5955;SDS011;3004;48.080;11.600;2023-04-08T00:12:44;67.23;;;2.90;;
5955;SDS011;3004;48.080;11.600;2023-04-08T00:15:11;67.00;;;2.93;;
5955;SDS011;3004;48.080;11.600;2023-04-08T00:17:39;69.47;;;5.50;;
5955;SDS011;3004;48.080;11.600;2023-04-08T00:20:07;67.03;;;3.00;;
5955;SDS011;3004;48.080;11.600;2023-04-08T00:22:34;67.57;;;3.10;;
5955;SDS011;3004;48.080;11.600;2023-04-08T00:25:02;67.53;;;3.10;;
5955;SDS011;3004;48.080;11.600;2023-04-08T00:27:30;67.57;;;3.27;;
5955;SDS011;3004;48.080;11.600;2023-04-08T00:30:00;69.73;;;4.43;;
5955;SDS011;3004;48.080;11.600;2023-04-08T00:32:28;67.27;;;3.40;;
5955;SDS011;3004;48.080;11.600;2023-04-08T00:34:57;67.37;;;3.40;;
5955;SDS011;3004;48.080;11.600;2023-04-08T00:37:24;67.93;;;3.40;;
5955;SDS011;3004;48.080;11.600;2023-04-08T00:39:53;67.37;;;3.30;;
5955;SDS011;3004;48.080;11.600;2023-04-08T00:42:20;68.13;;;4.23;;
5955;SDS011;3004;48.080;11.600;2023-04-08T00:44:47;68.17;;;4.17;;
5955;SDS011;3004;48.080;11.600;2023-04-08T00:47:15;67.57;;;3.53;;
5955;SDS011;3004;48.080;11.600;2023-04-08T00:49:42;67.27;;;3.20;;
5955;SDS011;3004;48.080;11.600;2023-04-08T00:52:13;66.97;;;3.23;;
5955;SDS011;3004;48.080;11.600;2023-04-08T00:54:41;67.27;;;3.30;;
5955;SDS011;3004;48.080;11.600;2023-04-08T00:57:08;67.13;;;3.30;;
5955;SDS011;3004;48.080;11.600;2023-04-08T00:59:35;67.20;;;3.33;;
5955;SDS011;3004;48.080;11.600;2023-04-08T01:02:05;68.70;;;4.80;;
5955;SDS011;3004;48.080;11.600;2023-04-08T01:04:37;67.20;;;3.27;;
5955;SDS011;3004;48.080;11.600;2023-04-08T01:07:14;67.73;;;3.70;;
5955;SDS011;3004;48.080;11.600;2023-04-08T01:09:43;68.70;;;4.43;;
5955;SDS011;3004;48.080;11.600;2023-04-08T01:12:14;67.97;;;3.57;;
5955;SDS011;3004;48.080;11.600;2023-04-08T01:14:43;67.97;;;3.67;;
5955;SDS011;3004;48.080;11.600;2023-04-08T01:17:13;70.00;;;4.83;;
5955;SDS011;3004;48.080;11.600;2023-04-08T01:19:41;68.53;;;4.23;;
5955;SDS011;3004;48.080;11.600;2023-04-08T01:22:10;68.83;;;4.53;;
5955;SDS011;3004;48.080;11.600;2023-04-08T01:24:42;68.40;;;3.80;;
5955;SDS011;3004;48.080;11.600;2023-04-08T01:27:11;68.60;;;4.00;;
5955;SDS011;3004;48.080;11.600;2023-04-08T01:29:40;68.70;;;4.00;;
5955;SDS011;3004;48.080;11.600;2023-04-08T01:32:07;71.33;;;4.87;;
5955;SDS011;3004;48.080;11.600;2023-04-08T01:34:39;68.90;;;4.60;;
5955;SDS011;3004;48.080;11.600;2023-04-08T01:37:06;68.97;;;4.30;;
5955;SDS011;3004;48.080;11.600;2023-04-08T01:39:34;68.90;;;4.40;;
5955;SDS011;3004;48.080;11.600;2023-04-08T01:42:02;68.97;;;4.67;;
5955;SDS011;3004;48.080;11.600;2023-04-08T01:44:31;68.83;;;4.40;;
5955;SDS011;3004;48.080;11.600;2023-04-08T01:46:58;68.90;;;4.20;;
5955;SDS011;3004;48.080;11.600;2023-04-08T01:49:26;68.70;;;4.10;;
5955;SDS011;3004;48.080;11.600;2023-04-08T01:51:53;68.60;;;4.13;;
5955;SDS011;3004;48.080;11.600;2023-04-08T01:54:22;68.50;;;4.10;;
5955;SDS011;3004;48.080;11.600;2023-04-08T01:56:49;68.70;;;4.10;;
5955;SDS011;3004;48.080;11.600;2023-04-08T01:59:17;68.90;;;4.30;;
5955;SDS011;3004;48.080;11.600;2023-04-08T02:01:48;68.77;;;4.30;;
5955;SDS011;3004;48.080;11.600;2023-04-08T02:04:16;68.67;;;4.10;;
5955;SDS011;3004;48.080;11.600;2023-04-08T02:06:43;68.50;;;4.20;;
5955;SDS011;3004;48.080;11.600;2023-04-08T02:09:10;68.97;;;4.50;;
5955;SDS011;3004;48.080;11.600;2023-04-08T02:11:37;69.20;;;4.67;;
5955;SDS011;3004;48.080;11.600;2023-04-08T02:14:05;68.60;;;4.07;;
5955;SDS011;3004;48.080;11.600;2023-04-08T02:16:33;68.83;;;4.10;;
5955;SDS011;3004;48.080;11.600;2023-04-08T02:19:07;69.40;;;4.87;;
5955;SDS011;3004;48.080;11.600;2023-04-08T02:21:37;68.57;;;4.17;;
5955;SDS011;3004;48.080;11.600;2023-04-08T02:24:11;68.47;;;4.20;;
5955;SDS011;3004;48.080;11.600;2023-04-08T02:26:38;68.57;;;4.10;;
5955;SDS011;3004;48.080;11.600;2023-04-08T02:29:07;68.57;;;4.30;;
5955;SDS011;3004;48.080;11.600;2023-04-08T02:31:38;68.30;;;3.90;;
5955;SDS011;3004;48.080;11.600;2023-04-08T02:34:11;68.20;;;3.90;;
5955;SDS011;3004;48.080;11.600;2023-04-08T02:36:39;68.00;;;3.97;;
5955;SDS011;3004;48.080;11.600;2023-04-08T02:39:10;68.10;;;3.97;;
5955;SDS011;3004;48.080;11.600;2023-04-08T02:41:37;68.20;;;3.90;;
5955;SDS011;3004;48.080;11.600;2023-04-08T02:44:04;68.30;;;4.10;;
5955;SDS011;3004;48.080;11.600;2023-04-08T02:46:31;68.20;;;3.90;;
5955;SDS011;3004;48.080;11.600;2023-04-08T02:48:58;68.57;;;3.93;;
5955;SDS011;3004;48.080;11.600;2023-04-08T02:51:36;68.67;;;4.90;;
5955;SDS011;3004;48.080;11.600;2023-04-08T02:54:04;68.67;;;4.00;;
5955;SDS011;3004;48.080;11.600;2023-04-08T02:56:33;68.40;;;4.07;;
5955;SDS011;3004;48.080;11.600;2023-04-08T02:59:00;68.60;;;4.00;;
5955;SDS011;3004;48.080;11.600;2023-04-08T03:01:29;68.30;;;4.10;;
5955;SDS011;3004;48.080;11.600;2023-04-08T03:03:59;68.47;;;4.20;;
5955;SDS011;3004;48.080;11.600;2023-04-08T03:06:28;68.70;;;4.30;;
5955;SDS011;3004;48.080;11.600;2023-04-08T03:08:57;68.57;;;4.10;;
5955;SDS011;3004;48.080;11.600;2023-04-08T03:11:24;68.80;;;4.13;;
5955;SDS011;3004;48.080;11.600;2023-04-08T03:13:52;68.97;;;4.27;;
5955;SDS011;3004;48.080;11.600;2023-04-08T03:16:19;69.10;;;4.40;;
5955;SDS011;3004;48.080;11.600;2023-04-08T03:18:48;69.03;;;4.50;;
5955;SDS011;3004;48.080;11.600;2023-04-08T03:21:15;68.80;;;4.37;;
5955;SDS011;3004;48.080;11.600;2023-04-08T03:23:43;69.27;;;4.40;;
5955;SDS011;3004;48.080;11.600;2023-04-08T03:26:12;69.40;;;4.60;;
5955;SDS011;3004;48.080;11.600;2023-04-08T03:28:39;69.37;;;4.60;;
5955;SDS011;3004;48.080;11.600;2023-04-08T03:31:09;69.30;;;4.50;;
5955;SDS011;3004;48.080;11.600;2023-04-08T03:33:36;69.37;;;4.50;;
5955;SDS011;3004;48.080;11.600;2023-04-08T03:36:03;69.20;;;4.50;;
5955;SDS011;3004;48.080;11.600;2023-04-08T03:38:31;73.90;;;5.97;;
5955;SDS011;3004;48.080;11.600;2023-04-08T03:40:59;70.30;;;6.03;;
5955;SDS011;3004;48.080;11.600;2023-04-08T03:43:30;69.47;;;4.80;;
5955;SDS011;3004;48.080;11.600;2023-04-08T03:45:58;69.17;;;4.77;;
5955;SDS011;3004;48.080;11.600;2023-04-08T03:48:25;69.47;;;4.60;;
5955;SDS011;3004;48.080;11.600;2023-04-08T03:50:52;69.40;;;4.53;;
5955;SDS011;3004;48.080;11.600;2023-04-08T03:53:19;69.50;;;4.60;;
5955;SDS011;3004;48.080;11.600;2023-04-08T03:55:47;69.57;;;4.77;;
5955;SDS011;3004;48.080;11.600;2023-04-08T03:58:15;69.43;;;4.70;;
5955;SDS011;3004;48.080;11.600;2023-04-08T04:00:44;70.80;;;5.97;;
5955;SDS011;3004;48.080;11.600;2023-04-08T04:03:13;69.40;;;4.70;;
5955;SDS011;3004;48.080;11.600;2023-04-08T04:05:40;70.00;;;5.20;;
5955;SDS011;3004;48.080;11.600;2023-04-08T04:08:07;69.60;;;4.63;;
5955;SDS011;3004;48.080;11.600;2023-04-08T04:10:35;69.67;;;4.57;;
5955;SDS011;3004;48.080;11.600;2023-04-08T04:13:04;69.57;;;4.60;;
5955;SDS011;3004;48.080;11.600;2023-04-08T04:15:32;70.60;;;5.73;;
5955;SDS011;3004;48.080;11.600;2023-04-08T04:18:01;69.60;;;4.67;;
5955;SDS011;3004;48.080;11.600;2023-04-08T04:20:28;69.30;;;4.83;;
5955;SDS011;3004;48.080;11.600;2023-04-08T04:22:55;69.60;;;4.67;;
5955;SDS011;3004;48.080;11.600;2023-04-08T04:25:27;69.80;;;4.70;;
5955;SDS011;3004;48.080;11.600;2023-04-08T04:27:54;69.70;;;4.70;;
5955;SDS011;3004;48.080;11.600;2023-04-08T04:30:22;69.10;;;4.70;;
5955;SDS011;3004;48.080;11.600;2023-04-08T04:32:50;69.77;;;4.77;;
5955;SDS011;3004;48.080;11.600;2023-04-08T04:35:18;69.50;;;4.77;;
5955;SDS011;3004;48.080;11.600;2023-04-08T04:37:46;69.97;;;4.80;;
5955;SDS011;3004;48.080;11.600;2023-04-08T04:40:14;69.60;;;4.90;;
5955;SDS011;3004;48.080;11.600;2023-04-08T04:42:42;69.40;;;4.70;;
5955;SDS011;3004;48.080;11.600;2023-04-08T04:45:10;69.57;;;4.60;;
5955;SDS011;3004;48.080;11.600;2023-04-08T04:47:37;69.77;;;4.73;;
5955;SDS011;3004;48.080;11.600;2023-04-08T04:50:05;69.60;;;4.63;;
5955;SDS011;3004;48.080;11.600;2023-04-08T04:52:33;70.23;;;5.67;;
5955;SDS011;3004;48.080;11.600;2023-04-08T04:55:03;75.83;;;6.23;;
5955;SDS011;3004;48.080;11.600;2023-04-08T04:57:30;69.67;;;4.90;;
5955;SDS011;3004;48.080;11.600;2023-04-08T04:59:57;69.30;;;4.60;;
5955;SDS011;3004;48.080;11.600;2023-04-08T05:02:26;69.70;;;4.80;;
5955;SDS011;3004;48.080;11.600;2023-04-08T05:04:54;69.97;;;5.20;;
5955;SDS011;3004;48.080;11.600;2023-04-08T05:07:23;69.70;;;4.80;;
5955;SDS011;3004;48.080;11.600;2023-04-08T05:09:51;69.60;;;4.67;;
5955;SDS011;3004;48.080;11.600;2023-04-08T05:12:19;69.67;;;4.67;;
5955;SDS011;3004;48.080;11.600;2023-04-08T05:14:48;70.00;;;5.17;;
5955;SDS011;3004;48.080;11.600;2023-04-08T05:17:16;69.60;;;4.63;;
5955;SDS011;3004;48.080;11.600;2023-04-08T05:19:43;69.67;;;4.77;;
5955;SDS011;3004;48.080;11.600;2023-04-08T05:22:10;69.80;;;5.00;;
5955;SDS011;3004;48.080;11.600;2023-04-08T05:24:38;69.30;;;4.67;;
5955;SDS011;3004;48.080;11.600;2023-04-08T05:27:16;69.40;;;4.70;;
5955;SDS011;3004;48.080;11.600;2023-04-08T05:29:43;69.97;;;4.70;;
5955;SDS011;3004;48.080;11.600;2023-04-08T05:32:10;69.87;;;5.10;;
5955;SDS011;3004;48.080;11.600;2023-04-08T05:34:37;69.50;;;4.63;;
5955;SDS011;3004;48.080;11.600;2023-04-08T05:37:07;70.33;;;5.23;;
5955;SDS011;3004;48.080;11.600;2023-04-08T05:39:34;71.00;;;6.17;;
5955;SDS011;3004;48.080;11.600;2023-04-08T05:42:02;69.80;;;4.77;;
5955;SDS011;3004;48.080;11.600;2023-04-08T05:44:31;69.70;;;4.67;;
5955;SDS011;3004;48.080;11.600;2023-04-08T05:46:58;70.07;;;5.53;;
5955;SDS011;3004;48.080;11.600;2023-04-08T05:49:26;71.63;;;5.80;;
5955;SDS011;3004;48.080;11.600;2023-04-08T05:51:53;69.50;;;4.60;;
5955;SDS011;3004;48.080;11.600;2023-04-08T05:54:23;69.63;;;4.60;;
5955;SDS011;3004;48.080;11.600;2023-04-08T05:56:50;75.33;;;5.83;;
5955;SDS011;3004;48.080;11.600;2023-04-08T05:59:22;69.57;;;4.60;;
5955;SDS011;3004;48.080;11.600;2023-04-08T06:01:55;69.37;;;4.67;;
5955;SDS011;3004;48.080;11.600;2023-04-08T06:04:23;69.57;;;4.60;;
5955;SDS011;3004;48.080;11.600;2023-04-08T06:06:57;69.47;;;4.47;;
5955;SDS011;3004;48.080;11.600;2023-04-08T06:09:26;69.87;;;5.37;;
5955;SDS011;3004;48.080;11.600;2023-04-08T06:11:57;69.40;;;4.60;;
5955;SDS011;3004;48.080;11.600;2023-04-08T06:14:24;69.93;;;4.70;;
5955;SDS011;3004;48.080;11.600;2023-04-08T06:16:55;69.97;;;5.00;;
5955;SDS011;3004;48.080;11.600;2023-04-08T06:19:23;70.60;;;5.77;;
5955;SDS011;3004;48.080;11.600;2023-04-08T06:21:50;69.20;;;4.43;;
5955;SDS011;3004;48.080;11.600;2023-04-08T06:24:22;69.47;;;4.70;;
5955;SDS011;3004;48.080;11.600;2023-04-08T06:26:50;69.40;;;4.73;;
5955;SDS011;3004;48.080;11.600;2023-04-08T06:29:17;70.10;;;5.33;;
5955;SDS011;3004;48.080;11.600;2023-04-08T06:31:45;69.30;;;4.33;;
5955;SDS011;3004;48.080;11.600;2023-04-08T06:34:13;71.37;;;5.43;;
5955;SDS011;3004;48.080;11.600;2023-04-08T06:36:43;71.17;;;5.43;;
5955;SDS011;3004;48.080;11.600;2023-04-08T06:39:14;69.27;;;4.30;;
5955;SDS011;3004;48.080;11.600;2023-04-08T06:41:43;69.67;;;4.60;;
5955;SDS011;3004;48.080;11.600;2023-04-08T06:44:10;69.27;;;4.30;;
5955;SDS011;3004;48.080;11.600;2023-04-08T06:46:42;69.50;;;4.90;;
5955;SDS011;3004;48.080;11.600;2023-04-08T06:49:15;69.27;;;4.50;;
5955;SDS011;3004;48.080;11.600;2023-04-08T06:51:44;69.93;;;4.87;;
5955;SDS011;3004;48.080;11.600;2023-04-08T06:54:12;69.17;;;4.40;;
5955;SDS011;3004;48.080;11.600;2023-04-08T06:56:45;69.30;;;4.40;;
5955;SDS011;3004;48.080;11.600;2023-04-08T06:59:13;69.20;;;4.43;;
5955;SDS011;3004;48.080;11.600;2023-04-08T07:01:40;69.53;;;4.70;;
5955;SDS011;3004;48.080;11.600;2023-04-08T07:04:10;68.90;;;4.30;;
5955;SDS011;3004;48.080;11.600;2023-04-08T07:06:45;69.17;;;4.53;;
5955;SDS011;3004;48.080;11.600;2023-04-08T07:09:14;69.40;;;4.07;;
5955;SDS011;3004;48.080;11.600;2023-04-08T07:11:43;68.67;;;4.07;;
5955;SDS011;3004;48.080;11.600;2023-04-08T07:14:12;68.83;;;4.30;;
5955;SDS011;3004;48.080;11.600;2023-04-08T07:16:42;68.70;;;4.30;;
5955;SDS011;3004;48.080;11.600;2023-04-08T07:19:09;68.50;;;4.07;;
5955;SDS011;3004;48.080;11.600;2023-04-08T07:21:37;68.97;;;4.40;;
5955;SDS011;3004;48.080;11.600;2023-04-08T07:24:08;71.47;;;5.73;;
5955;SDS011;3004;48.080;11.600;2023-04-08T07:26:36;83.07;;;6.87;;
5955;SDS011;3004;48.080;11.600;2023-04-08T07:29:04;69.77;;;4.57;;
5955;SDS011;3004;48.080;11.600;2023-04-08T07:31:34;68.67;;;4.00;;
5955;SDS011;3004;48.080;11.600;2023-04-08T07:34:02;70.37;;;5.77;;
5955;SDS011;3004;48.080;11.600;2023-04-08T07:36:29;68.53;;;4.10;;
5955;SDS011;3004;48.080;11.600;2023-04-08T07:38:59;68.60;;;4.60;;
5955;SDS011;3004;48.080;11.600;2023-04-08T07:41:34;67.60;;;3.50;;
5955;SDS011;3004;48.080;11.600;2023-04-08T07:44:06;67.87;;;3.83;;
5955;SDS011;3004;48.080;11.600;2023-04-08T07:46:35;68.57;;;4.03;;
5955;SDS011;3004;48.080;11.600;2023-04-08T07:49:03;67.60;;;3.90;;
5955;SDS011;3004;48.080;11.600;2023-04-08T07:51:30;69.30;;;4.80;;
5955;SDS011;3004;48.080;11.600;2023-04-08T07:53:58;67.27;;;3.60;;
5955;SDS011;3004;48.080;11.600;2023-04-08T07:56:29;66.87;;;3.10;;
5955;SDS011;3004;48.080;11.600;2023-04-08T07:59:04;66.33;;;2.80;;
5955;SDS011;3004;48.080;11.600;2023-04-08T08:01:32;67.17;;;3.40;;
5955;SDS011;3004;48.080;11.600;2023-04-08T08:04:02;66.47;;;2.87;;
5955;SDS011;3004;48.080;11.600;2023-04-08T08:06:30;69.70;;;5.23;;
5955;SDS011;3004;48.080;11.600;2023-04-08T08:25:59;65.70;;;1.90;;
5955;SDS011;3004;48.080;11.600;2023-04-08T08:28:30;66.30;;;2.53;;
5955;SDS011;3004;48.080;11.600;2023-04-08T08:31:02;66.50;;;2.90;;
5955;SDS011;3004;48.080;11.600;2023-04-08T08:33:35;65.80;;;2.30;;
5955;SDS011;3004;48.080;11.600;2023-04-08T08:36:02;65.53;;;2.13;;
5955;SDS011;3004;48.080;11.600;2023-04-08T08:38:31;66.17;;;2.80;;
5955;SDS011;3004;48.080;11.600;2023-04-08T08:41:00;66.67;;;2.90;;
5955;SDS011;3004;48.080;11.600;2023-04-08T08:43:28;65.77;;;2.60;;
5955;SDS011;3004;48.080;11.600;2023-04-08T08:45:57;66.13;;;2.80;;
5955;SDS011;3004;48.080;11.600;2023-04-08T08:48:24;66.57;;;3.07;;
5955;SDS011;3004;48.080;11.600;2023-04-08T08:50:52;66.10;;;2.60;;
5955;SDS011;3004;48.080;11.600;2023-04-08T08:53:20;65.90;;;2.80;;
5955;SDS011;3004;48.080;11.600;2023-04-08T08:55:49;68.10;;;5.07;;
5955;SDS011;3004;48.080;11.600;2023-04-08T08:58:28;66.37;;;3.07;;
5955;SDS011;3004;48.080;11.600;2023-04-08T09:01:00;67.00;;;3.97;;
5955;SDS011;3004;48.080;11.600;2023-04-08T09:03:27;66.20;;;2.77;;
5955;SDS011;3004;48.080;11.600;2023-04-08T09:05:55;66.27;;;2.60;;
5955;SDS011;3004;48.080;11.600;2023-04-08T09:08:27;68.70;;;5.00;;
5955;SDS011;3004;48.080;11.600;2023-04-08T09:11:09;66.40;;;2.90;;
5955;SDS011;3004;48.080;11.600;2023-04-08T09:13:43;66.50;;;2.83;;
5955;SDS011;3004;48.080;11.600;2023-04-08T09:16:11;66.60;;;2.90;;
5955;SDS011;3004;48.080;11.600;2023-04-08T09:18:40;66.70;;;3.00;;
5955;SDS011;3004;48.080;11.600;2023-04-08T09:21:08;66.87;;;3.33;;
5955;SDS011;3004;48.080;11.600;2023-04-08T09:23:37;67.00;;;3.20;;
5955;SDS011;3004;48.080;11.600;2023-04-08T09:29:13;66.87;;;2.97;;
5955;SDS011;3004;48.080;11.600;2023-04-08T09:31:42;67.03;;;3.20;;
5955;SDS011;3004;48.080;11.600;2023-04-08T09:34:13;67.60;;;4.13;;
5955;SDS011;3004;48.080;11.600;2023-04-08T09:36:43;67.97;;;4.40;;
5955;SDS011;3004;48.080;11.600;2023-04-08T09:39:13;67.33;;;3.50;;
5955;SDS011;3004;48.080;11.600;2023-04-08T09:41:41;68.50;;;5.57;;
5955;SDS011;3004;48.080;11.600;2023-04-08T09:44:09;68.00;;;4.47;;
5955;SDS011;3004;48.080;11.600;2023-04-08T09:46:45;68.10;;;3.70;;
5955;SDS011;3004;48.080;11.600;2023-04-08T09:49:15;67.57;;;3.70;;
5955;SDS011;3004;48.080;11.600;2023-04-08T09:51:48;67.90;;;4.37;;
5955;SDS011;3004;48.080;11.600;2023-04-08T09:54:26;67.30;;;3.40;;
5955;SDS011;3004;48.080;11.600;2023-04-08T09:57:00;67.67;;;3.60;;
5955;SDS011;3004;48.080;11.600;2023-04-08T09:59:31;68.93;;;5.50;;
5955;SDS011;3004;48.080;11.600;2023-04-08T10:02:15;69.20;;;4.73;;
5955;SDS011;3004;48.080;11.600;2023-04-08T10:04:44;68.00;;;3.70;;
5955;SDS011;3004;48.080;11.600;2023-04-08T10:07:18;67.80;;;3.60;;
5955;SDS011;3004;48.080;11.600;2023-04-08T10:09:45;67.67;;;3.87;;
5955;SDS011;3004;48.080;11.600;2023-04-08T10:12:16;72.50;;;4.20;;
5955;SDS011;3004;48.080;11.600;2023-04-08T10:17:47;67.70;;;3.60;;
5955;SDS011;3004;48.080;11.600;2023-04-08T10:23:11;67.20;;;3.70;;
5955;SDS011;3004;48.080;11.600;2023-04-08T10:25:55;67.10;;;3.57;;
5955;SDS011;3004;48.080;11.600;2023-04-08T10:28:23;67.10;;;3.53;;
5955;SDS011;3004;48.080;11.600;2023-04-08T10:30:56;66.50;;;3.10;;
5955;SDS011;3004;48.080;11.600;2023-04-08T10:33:32;66.60;;;3.33;;
5955;SDS011;3004;48.080;11.600;2023-04-08T10:36:00;66.90;;;3.33;;
5955;SDS011;3004;48.080;11.600;2023-04-08T10:38:41;66.47;;;3.00;;
5955;SDS011;3004;48.080;11.600;2023-04-08T10:41:11;66.00;;;2.80;;
5955;SDS011;3004;48.080;11.600;2023-04-08T10:43:45;66.20;;;3.27;;
5955;SDS011;3004;48.080;11.600;2023-04-08T10:46:16;67.20;;;3.97;;
5955;SDS011;3004;48.080;11.600;2023-04-08T10:48:44;65.87;;;2.73;;
5955;SDS011;3004;48.080;11.600;2023-04-08T10:51:29;66.53;;;3.70;;
5955;SDS011;3004;48.080;11.600;2023-04-08T10:54:04;66.07;;;3.13;;
5955;SDS011;3004;48.080;11.600;2023-04-08T10:56:38;66.97;;;4.23;;
5955;SDS011;3004;48.080;11.600;2023-04-08T10:59:12;66.30;;;3.23;;
5955;SDS011;3004;48.080;11.600;2023-04-08T11:01:45;65.80;;;2.60;;
5955;SDS011;3004;48.080;11.600;2023-04-08T11:04:16;65.80;;;2.80;;
5955;SDS011;3004;48.080;11.600;2023-04-08T11:06:55;65.70;;;2.50;;
5955;SDS011;3004;48.080;11.600;2023-04-08T11:09:25;66.23;;;2.93;;
5955;SDS011;3004;48.080;11.600;2023-04-08T11:11:55;67.50;;;4.40;;
5955;SDS011;3004;48.080;11.600;2023-04-08T11:14:22;66.50;;;3.67;;
5955;SDS011;3004;48.080;11.600;2023-04-08T11:16:53;67.43;;;3.00;;
5955;SDS011;3004;48.080;11.600;2023-04-08T11:19:22;67.27;;;3.60;;
5955;SDS011;3004;48.080;11.600;2023-04-08T11:28:09;66.47;;;3.07;;
5955;SDS011;3004;48.080;11.600;2023-04-08T11:30:37;65.60;;;2.60;;
5955;SDS011;3004;48.080;11.600;2023-04-08T11:33:04;66.27;;;2.80;;
5955;SDS011;3004;48.080;11.600;2023-04-08T11:35:38;65.87;;;2.50;;
5955;SDS011;3004;48.080;11.600;2023-04-08T11:38:05;65.97;;;2.67;;
5955;SDS011;3004;48.080;11.600;2023-04-08T11:40:34;66.17;;;2.70;;
5955;SDS011;3004;48.080;11.600;2023-04-08T11:43:09;65.70;;;2.60;;
5955;SDS011;3004;48.080;11.600;2023-04-08T11:45:39;66.17;;;2.70;;
5955;SDS011;3004;48.080;11.600;2023-04-08T11:48:08;65.97;;;2.67;;
5955;SDS011;3004;48.080;11.600;2023-04-08T11:50:38;65.97;;;2.70;;
5955;SDS011;3004;48.080;11.600;2023-04-08T11:53:23;66.90;;;3.97;;
5955;SDS011;3004;48.080;11.600;2023-04-08T12:01:57;66.40;;;3.00;;
5955;SDS011;3004;48.080;11.600;2023-04-08T12:08:02;66.47;;;3.30;;
5955;SDS011;3004;48.080;11.600;2023-04-08T12:16:41;66.50;;;2.73;;
5955;SDS011;3004;48.080;11.600;2023-04-08T12:19:18;67.13;;;3.70;;
5955;SDS011;3004;48.080;11.600;2023-04-08T12:21:54;69.13;;;4.20;;
5955;SDS011;3004;48.080;11.600;2023-04-08T12:24:44;66.77;;;3.10;;
5955;SDS011;3004;48.080;11.600;2023-04-08T12:27:13;67.03;;;3.40;;
5955;SDS011;3004;48.080;11.600;2023-04-08T12:29:49;66.20;;;3.00;;
5955;SDS011;3004;48.080;11.600;2023-04-08T12:32:28;66.97;;;3.53;;
5955;SDS011;3004;48.080;11.600;2023-04-08T12:34:58;66.70;;;3.30;;
5955;SDS011;3004;48.080;11.600;2023-04-08T12:37:32;68.63;;;3.37;;
5955;SDS011;3004;48.080;11.600;2023-04-08T12:40:01;65.90;;;2.90;;
5955;SDS011;3004;48.080;11.600;2023-04-08T12:42:28;66.37;;;3.00;;
5955;SDS011;3004;48.080;11.600;2023-04-08T12:44:55;67.50;;;3.83;;
5955;SDS011;3004;48.080;11.600;2023-04-08T12:47:23;66.27;;;3.23;;
5955;SDS011;3004;48.080;11.600;2023-04-08T12:50:02;66.77;;;3.50;;
5955;SDS011;3004;48.080;11.600;2023-04-08T12:52:58;66.30;;;2.80;;
5955;SDS011;3004;48.080;11.600;2023-04-08T12:55:34;66.20;;;3.10;;
5955;SDS011;3004;48.080;11.600;2023-04-08T12:58:04;66.17;;;2.70;;
5955;SDS011;3004;48.080;11.600;2023-04-08T13:00:48;66.77;;;3.10;;
5955;SDS011;3004;48.080;11.600;2023-04-08T13:03:20;69.07;;;4.03;;
5955;SDS011;3004;48.080;11.600;2023-04-08T13:05:53;66.20;;;3.03;;
5955;SDS011;3004;48.080;11.600;2023-04-08T13:08:28;66.37;;;2.90;;
5955;SDS011;3004;48.080;11.600;2023-04-08T13:15:08;66.87;;;3.17;;
5955;SDS011;3004;48.080;11.600;2023-04-08T13:18:13;69.83;;;5.20;;
5955;SDS011;3004;48.080;11.600;2023-04-08T13:20:42;67.03;;;3.00;;
5955;SDS011;3004;48.080;11.600;2023-04-08T13:23:10;66.87;;;3.37;;
5955;SDS011;3004;48.080;11.600;2023-04-08T13:25:39;66.97;;;3.20;;
5955;SDS011;3004;48.080;11.600;2023-04-08T13:28:10;66.97;;;3.50;;
5955;SDS011;3004;48.080;11.600;2023-04-08T13:30:39;66.90;;;3.30;;
5955;SDS011;3004;48.080;11.600;2023-04-08T13:34:41;66.87;;;3.00;;
5955;SDS011;3004;48.080;11.600;2023-04-08T13:36:11;67.07;;;3.30;;
5955;SDS011;3004;48.080;11.600;2023-04-08T13:38:39;67.23;;;3.40;;
5955;SDS011;3004;48.080;11.600;2023-04-08T13:41:18;67.17;;;3.40;;
5955;SDS011;3004;48.080;11.600;2023-04-08T13:44:05;67.87;;;3.80;;
5955;SDS011;3004;48.080;11.600;2023-04-08T13:46:34;68.43;;;4.23;;
5955;SDS011;3004;48.080;11.600;2023-04-08T13:49:06;67.73;;;3.90;;
5955;SDS011;3004;48.080;11.600;2023-04-08T13:58:17;67.87;;;3.80;;
5955;SDS011;3004;48.080;11.600;2023-04-08T14:00:48;69.23;;;5.33;;
5955;SDS011;3004;48.080;11.600;2023-04-08T14:03:25;68.10;;;3.90;;
5955;SDS011;3004;48.080;11.600;2023-04-08T14:05:54;68.20;;;3.90;;
5955;SDS011;3004;48.080;11.600;2023-04-08T14:08:28;68.57;;;4.00;;
5955;SDS011;3004;48.080;11.600;2023-04-08T14:11:01;68.27;;;4.07;;
5955;SDS011;3004;48.080;11.600;2023-04-08T14:13:28;68.47;;;4.00;;
5955;SDS011;3004;48.080;11.600;2023-04-08T14:22:36;68.73;;;4.07;;
5955;SDS011;3004;48.080;11.600;2023-04-08T14:25:11;69.30;;;5.27;;
5955;SDS011;3004;48.080;11.600;2023-04-08T14:27:45;69.43;;;4.70;;
5955;SDS011;3004;48.080;11.600;2023-04-08T14:30:14;68.40;;;4.20;;
5955;SDS011;3004;48.080;11.600;2023-04-08T14:32:44;70.20;;;5.00;;
5955;SDS011;3004;48.080;11.600;2023-04-08T14:35:14;69.13;;;4.53;;
5955;SDS011;3004;48.080;11.600;2023-04-08T14:37:43;69.13;;;4.50;;
5955;SDS011;3004;48.080;11.600;2023-04-08T14:40:11;68.60;;;4.20;;
5955;SDS011;3004;48.080;11.600;2023-04-08T14:42:38;69.07;;;4.93;;
5955;SDS011;3004;48.080;11.600;2023-04-08T14:45:12;68.67;;;4.20;;
5955;SDS011;3004;48.080;11.600;2023-04-08T14:47:39;68.77;;;4.40;;
5955;SDS011;3004;48.080;11.600;2023-04-08T14:50:08;68.77;;;4.40;;
5955;SDS011;3004;48.080;11.600;2023-04-08T14:52:37;68.40;;;4.27;;
5955;SDS011;3004;48.080;11.600;2023-04-08T14:55:14;69.40;;;4.87;;
5955;SDS011;3004;48.080;11.600;2023-04-08T14:57:44;72.77;;;5.67;;
5955;SDS011;3004;48.080;11.600;2023-04-08T15:00:17;68.40;;;4.10;;
5955;SDS011;3004;48.080;11.600;2023-04-08T15:02:55;68.47;;;4.00;;
5955;SDS011;3004;48.080;11.600;2023-04-08T15:05:35;68.17;;;4.00;;
5955;SDS011;3004;48.080;11.600;2023-04-08T15:08:02;68.40;;;3.90;;
5955;SDS011;3004;48.080;11.600;2023-04-08T15:10:31;68.03;;;4.10;;
5955;SDS011;3004;48.080;11.600;2023-04-08T15:12:58;68.07;;;3.87;;
5955;SDS011;3004;48.080;11.600;2023-04-08T15:15:27;67.93;;;3.77;;
5955;SDS011;3004;48.080;11.600;2023-04-08T15:17:55;68.30;;;4.13;;
5955;SDS011;3004;48.080;11.600;2023-04-08T15:20:24;67.80;;;3.77;;
5955;SDS011;3004;48.080;11.600;2023-04-08T15:22:51;69.30;;;5.20;;
5955;SDS011;3004;48.080;11.600;2023-04-08T15:25:19;69.27;;;5.00;;
5955;SDS011;3004;48.080;11.600;2023-04-08T15:27:47;68.73;;;4.93;;
5955;SDS011;3004;48.080;11.600;2023-04-08T15:30:15;67.80;;;3.70;;
5955;SDS011;3004;48.080;11.600;2023-04-08T15:32:48;69.70;;;4.37;;
5955;SDS011;3004;48.080;11.600;2023-04-08T15:35:15;67.93;;;3.90;;
5955;SDS011;3004;48.080;11.600;2023-04-08T15:37:44;68.27;;;4.30;;
5955;SDS011;3004;48.080;11.600;2023-04-08T15:40:12;68.17;;;4.17;;
5955;SDS011;3004;48.080;11.600;2023-04-08T15:42:39;69.27;;;5.13;;
5955;SDS011;3004;48.080;11.600;2023-04-08T15:45:08;67.93;;;4.20;;
5955;SDS011;3004;48.080;11.600;2023-04-08T15:47:36;68.03;;;3.67;;
5955;SDS011;3004;48.080;11.600;2023-04-08T16:18:20;68.17;;;4.20;;
5955;SDS011;3004;48.080;11.600;2023-04-08T16:20:48;68.70;;;4.30;;
5955;SDS011;3004;48.080;11.600;2023-04-08T16:23:17;68.27;;;4.43;;
5955;SDS011;3004;48.080;11.600;2023-04-08T16:25:44;68.30;;;4.20;;
5955;SDS011;3004;48.080;11.600;2023-04-08T16:28:16;68.83;;;4.50;;
5955;SDS011;3004;48.080;11.600;2023-04-08T16:30:43;68.50;;;4.40;;
5955;SDS011;3004;48.080;11.600;2023-04-08T16:33:11;68.43;;;4.27;;
5955;SDS011;3004;48.080;11.600;2023-04-08T16:35:41;68.53;;;4.63;;
5955;SDS011;3004;48.080;11.600;2023-04-08T16:38:22;68.67;;;4.50;;